sensor_id;sensor_type;location;lat;lon;timestamp;P1;durP1;ratioP1;P2;durP2;ratioP2
4810;SDS011;2419;51.276;6.472;2022-08-03T00:02:17;2.27;;;1.40;;
4810;SDS011;2419;51.276;6.472;2022-08-03T00:04:45;3.03;;;1.70;;
4810;SDS011;2419;51.276;6.472;2022-08-03T00:07:14;2.00;;;1.60;;
4810;SDS011;2419;51.276;6.472;2022-08-03T00:09:42;1.60;;;1.20;;
4810;SDS011;2419;51.276;6.472;2022-08-03T00:12:10;1.40;;;1.30;;
4810;SDS011;2419;51.276;6.472;2022-08-03T00:14:39;1.40;;;1.30;;
4810;SDS011;2419;51.276;6.472;2022-08-03T00:17:08;1.50;;;1.40;;
4810;SDS011;2419;51.276;6.472;2022-08-03T00:19:36;1.50;;;1.30;;
4810;SDS011;2419;51.276;6.472;2022-08-03T00:22:05;3.20;;;1.80;;
4810;SDS011;2419;51.276;6.472;2022-08-03T00:24:33;1.93;;;1.83;;
4810;SDS011;2419;51.276;6.472;2022-08-03T00:27:01;1.80;;;1.50;;
4810;SDS011;2419;51.276;6.472;2022-08-03T00:29:29;1.53;;;1.43;;
4810;SDS011;2419;51.276;6.472;2022-08-03T00:31:58;1.77;;;1.40;;
4810;SDS011;2419;51.276;6.472;2022-08-03T00:34:27;2.00;;;1.40;;
4810;SDS011;2419;51.276;6.472;2022-08-03T00:37:16;1.43;;;1.27;;
4810;SDS011;2419;51.276;6.472;2022-08-03T00:39:44;1.70;;;1.53;;
4810;SDS011;2419;51.276;6.472;2022-08-03T00:42:13;3.50;;;1.53;;
4810;SDS011;2419;51.276;6.472;2022-08-03T00:44:42;2.00;;;1.60;;
4810;SDS011;2419;51.276;6.472;2022-08-03T00:47:11;1.83;;;1.43;;
4810;SDS011;2419;51.276;6.472;2022-08-03T00:49:41;1.60;;;1.50;;
4810;SDS011;2419;51.276;6.472;2022-08-03T00:52:09;1.67;;;1.57;;
4810;SDS011;2419;51.276;6.472;2022-08-03T00:54:38;2.30;;;1.97;;
4810;SDS011;2419;51.276;6.472;2022-08-03T00:57:06;2.07;;;1.50;;
4810;SDS011;2419;51.276;6.472;2022-08-03T00:59:35;1.77;;;1.60;;
4810;SDS011;2419;51.276;6.472;2022-08-03T01:02:04;1.60;;;1.50;;
4810;SDS011;2419;51.276;6.472;2022-08-03T01:04:33;1.30;;;1.20;;
4810;SDS011;2419;51.276;6.472;2022-08-03T01:07:05;1.60;;;1.50;;
4810;SDS011;2419;51.276;6.472;2022-08-03T01:09:40;1.63;;;1.53;;
4810;SDS011;2419;51.276;6.472;2022-08-03T01:12:18;1.97;;;1.63;;
4810;SDS011;2419;51.276;6.472;2022-08-03T01:14:54;1.50;;;1.20;;
4810;SDS011;2419;51.276;6.472;2022-08-03T01:17:28;1.70;;;1.60;;
4810;SDS011;2419;51.276;6.472;2022-08-03T01:20:03;1.80;;;1.43;;
4810;SDS011;2419;51.276;6.472;2022-08-03T01:22:39;1.60;;;1.50;;
4810;SDS011;2419;51.276;6.472;2022-08-03T01:25:27;1.77;;;1.50;;
4810;SDS011;2419;51.276;6.472;2022-08-03T01:28:11;1.93;;;1.50;;
4810;SDS011;2419;51.276;6.472;2022-08-03T01:30:53;1.63;;;1.50;;
4810;SDS011;2419;51.276;6.472;2022-08-03T01:33:27;5.83;;;1.60;;
4810;SDS011;2419;51.276;6.472;2022-08-03T01:36:03;2.00;;;1.50;;
4810;SDS011;2419;51.276;6.472;2022-08-03T01:38:34;3.27;;;1.40;;
4810;SDS011;2419;51.276;6.472;2022-08-03T01:41:08;2.37;;;2.17;;
4810;SDS011;2419;51.276;6.472;2022-08-03T01:43:41;1.70;;;1.40;;
4810;SDS011;2419;51.276;6.472;2022-08-03T01:46:35;1.73;;;1.53;;
4810;SDS011;2419;51.276;6.472;2022-08-03T01:49:13;1.87;;;1.57;;
4810;SDS011;2419;51.276;6.472;2022-08-03T01:51:42;4.40;;;1.50;;
4810;SDS011;2419;51.276;6.472;2022-08-03T01:54:30;2.40;;;1.63;;
4810;SDS011;2419;51.276;6.472;2022-08-03T01:57:04;1.90;;;1.50;;
4810;SDS011;2419;51.276;6.472;2022-08-03T01:59:33;1.70;;;1.57;;
4810;SDS011;2419;51.276;6.472;2022-08-03T02:02:04;1.93;;;1.57;;
4810;SDS011;2419;51.276;6.472;2022-08-03T02:04:54;2.00;;;1.40;;
4810;SDS011;2419;51.276;6.472;2022-08-03T02:07:24;2.40;;;1.50;;
4810;SDS011;2419;51.276;6.472;2022-08-03T02:09:54;1.77;;;1.63;;
4810;SDS011;2419;51.276;6.472;2022-08-03T02:12:24;1.50;;;1.40;;
4810;SDS011;2419;51.276;6.472;2022-08-03T02:14:54;1.80;;;1.70;;
4810;SDS011;2419;51.276;6.472;2022-08-03T02:17:27;2.20;;;1.50;;
4810;SDS011;2419;51.276;6.472;2022-08-03T02:20:06;1.50;;;1.40;;
4810;SDS011;2419;51.276;6.472;2022-08-03T02:22:38;1.83;;;1.50;;
4810;SDS011;2419;51.276;6.472;2022-08-03T02:25:07;1.60;;;1.50;;
4810;SDS011;2419;51.276;6.472;2022-08-03T02:27:37;1.20;;;1.10;;
4810;SDS011;2419;51.276;6.472;2022-08-03T02:30:09;1.83;;;1.70;;
4810;SDS011;2419;51.276;6.472;2022-08-03T02:32:41;1.30;;;1.20;;
4810;SDS011;2419;51.276;6.472;2022-08-03T02:35:15;1.67;;;1.57;;
4810;SDS011;2419;51.276;6.472;2022-08-03T02:37:46;1.90;;;1.70;;
4810;SDS011;2419;51.276;6.472;2022-08-03T02:40:18;2.13;;;1.40;;
4810;SDS011;2419;51.276;6.472;2022-08-03T02:42:48;2.83;;;1.53;;
4810;SDS011;2419;51.276;6.472;2022-08-03T02:45:21;1.67;;;1.40;;
4810;SDS011;2419;51.276;6.472;2022-08-03T02:47:53;4.30;;;1.40;;
4810;SDS011;2419;51.276;6.472;2022-08-03T02:50:24;1.40;;;1.23;;
4810;SDS011;2419;51.276;6.472;2022-08-03T02:52:53;1.53;;;1.43;;
4810;SDS011;2419;51.276;6.472;2022-08-03T02:55:24;1.50;;;1.40;;
4810;SDS011;2419;51.276;6.472;2022-08-03T02:57:53;1.30;;;1.20;;
4810;SDS011;2419;51.276;6.472;2022-08-03T03:00:27;3.47;;;1.70;;
4810;SDS011;2419;51.276;6.472;2022-08-03T03:02:58;1.50;;;1.30;;
4810;SDS011;2419;51.276;6.472;2022-08-03T03:05:29;1.83;;;1.73;;
4810;SDS011;2419;51.276;6.472;2022-08-03T03:08:18;1.43;;;1.20;;
4810;SDS011;2419;51.276;6.472;2022-08-03T03:10:53;1.90;;;1.60;;
4810;SDS011;2419;51.276;6.472;2022-08-03T03:13:23;2.03;;;1.43;;
4810;SDS011;2419;51.276;6.472;2022-08-03T03:15:53;1.63;;;1.53;;
4810;SDS011;2419;51.276;6.472;2022-08-03T03:18:25;1.83;;;1.33;;
4810;SDS011;2419;51.276;6.472;2022-08-03T03:20:54;1.47;;;1.37;;
4810;SDS011;2419;51.276;6.472;2022-08-03T03:23:24;1.63;;;1.53;;
4810;SDS011;2419;51.276;6.472;2022-08-03T03:25:54;1.73;;;1.63;;
4810;SDS011;2419;51.276;6.472;2022-08-03T03:28:24;1.50;;;1.40;;
4810;SDS011;2419;51.276;6.472;2022-08-03T03:30:54;1.67;;;1.57;;
4810;SDS011;2419;51.276;6.472;2022-08-03T03:33:24;3.30;;;1.63;;
4810;SDS011;2419;51.276;6.472;2022-08-03T03:35:54;3.20;;;1.40;;
4810;SDS011;2419;51.276;6.472;2022-08-03T03:38:22;2.07;;;1.37;;
4810;SDS011;2419;51.276;6.472;2022-08-03T03:40:50;1.50;;;1.40;;
4810;SDS011;2419;51.276;6.472;2022-08-03T03:43:19;2.70;;;1.70;;
4810;SDS011;2419;51.276;6.472;2022-08-03T03:45:49;1.90;;;1.63;;
4810;SDS011;2419;51.276;6.472;2022-08-03T03:48:18;1.77;;;1.60;;
4810;SDS011;2419;51.276;6.472;2022-08-03T03:50:48;2.03;;;1.73;;
4810;SDS011;2419;51.276;6.472;2022-08-03T03:53:17;1.67;;;1.40;;
4810;SDS011;2419;51.276;6.472;2022-08-03T03:55:45;1.57;;;1.47;;
4810;SDS011;2419;51.276;6.472;2022-08-03T03:58:28;1.70;;;1.37;;
4810;SDS011;2419;51.276;6.472;2022-08-03T04:00:57;1.70;;;1.60;;
4810;SDS011;2419;51.276;6.472;2022-08-03T04:03:26;1.53;;;1.37;;
4810;SDS011;2419;51.276;6.472;2022-08-03T04:05:55;2.23;;;1.37;;
4810;SDS011;2419;51.276;6.472;2022-08-03T04:08:41;1.53;;;1.43;;
4810;SDS011;2419;51.276;6.472;2022-08-03T04:11:39;3.73;;;1.53;;
4810;SDS011;2419;51.276;6.472;2022-08-03T04:14:12;1.57;;;1.47;;
4810;SDS011;2419;51.276;6.472;2022-08-03T04:16:45;1.50;;;1.40;;
4810;SDS011;2419;51.276;6.472;2022-08-03T04:19:17;4.67;;;1.70;;
4810;SDS011;2419;51.276;6.472;2022-08-03T04:21:53;1.40;;;1.30;;
4810;SDS011;2419;51.276;6.472;2022-08-03T04:24:28;1.67;;;1.10;;
4810;SDS011;2419;51.276;6.472;2022-08-03T04:27:00;1.30;;;1.20;;
4810;SDS011;2419;51.276;6.472;2022-08-03T04:29:32;1.50;;;1.40;;
4810;SDS011;2419;51.276;6.472;2022-08-03T04:32:10;2.33;;;1.50;;
4810;SDS011;2419;51.276;6.472;2022-08-03T04:34:39;1.43;;;1.33;;
4810;SDS011;2419;51.276;6.472;2022-08-03T04:37:09;2.53;;;1.70;;
4810;SDS011;2419;51.276;6.472;2022-08-03T04:39:40;1.77;;;1.43;;
4810;SDS011;2419;51.276;6.472;2022-08-03T04:42:10;2.33;;;1.33;;
4810;SDS011;2419;51.276;6.472;2022-08-03T04:44:40;3.40;;;2.07;;
4810;SDS011;2419;51.276;6.472;2022-08-03T04:47:10;2.23;;;1.60;;
4810;SDS011;2419;51.276;6.472;2022-08-03T04:49:38;2.80;;;2.10;;
4810;SDS011;2419;51.276;6.472;2022-08-03T04:52:07;1.60;;;1.50;;
4810;SDS011;2419;51.276;6.472;2022-08-03T04:54:41;2.60;;;1.90;;
4810;SDS011;2419;51.276;6.472;2022-08-03T04:57:16;1.60;;;1.40;;
4810;SDS011;2419;51.276;6.472;2022-08-03T04:59:49;2.40;;;1.70;;
4810;SDS011;2419;51.276;6.472;2022-08-03T05:02:27;1.93;;;1.63;;
4810;SDS011;2419;51.276;6.472;2022-08-03T05:04:56;1.73;;;1.60;;
4810;SDS011;2419;51.276;6.472;2022-08-03T05:07:24;1.63;;;1.47;;
4810;SDS011;2419;51.276;6.472;2022-08-03T05:10:04;2.03;;;1.40;;
4810;SDS011;2419;51.276;6.472;2022-08-03T05:12:40;1.60;;;1.40;;
4810;SDS011;2419;51.276;6.472;2022-08-03T05:15:09;1.43;;;1.33;;
4810;SDS011;2419;51.276;6.472;2022-08-03T05:17:37;2.57;;;2.37;;
4810;SDS011;2419;51.276;6.472;2022-08-03T05:20:05;2.20;;;1.50;;
4810;SDS011;2419;51.276;6.472;2022-08-03T05:22:34;1.73;;;1.30;;
4810;SDS011;2419;51.276;6.472;2022-08-03T05:25:04;2.60;;;1.83;;
4810;SDS011;2419;51.276;6.472;2022-08-03T05:27:33;1.33;;;1.20;;
4810;SDS011;2419;51.276;6.472;2022-08-03T05:30:01;1.70;;;1.60;;
4810;SDS011;2419;51.276;6.472;2022-08-03T05:32:50;2.90;;;1.60;;
4810;SDS011;2419;51.276;6.472;2022-08-03T05:35:24;1.50;;;1.40;;
4810;SDS011;2419;51.276;6.472;2022-08-03T05:38:14;1.43;;;1.30;;
4810;SDS011;2419;51.276;6.472;2022-08-03T05:40:55;2.57;;;1.83;;
4810;SDS011;2419;51.276;6.472;2022-08-03T05:43:44;2.20;;;1.67;;
4810;SDS011;2419;51.276;6.472;2022-08-03T05:46:13;2.60;;;1.60;;
4810;SDS011;2419;51.276;6.472;2022-08-03T05:48:42;5.17;;;1.50;;
4810;SDS011;2419;51.276;6.472;2022-08-03T05:51:12;2.10;;;1.97;;
4810;SDS011;2419;51.276;6.472;2022-08-03T05:53:45;3.50;;;1.83;;
4810;SDS011;2419;51.276;6.472;2022-08-03T05:56:14;1.80;;;1.70;;
4810;SDS011;2419;51.276;6.472;2022-08-03T05:58:43;2.07;;;1.80;;
4810;SDS011;2419;51.276;6.472;2022-08-03T06:01:12;1.63;;;1.40;;
4810;SDS011;2419;51.276;6.472;2022-08-03T06:03:41;3.90;;;1.87;;
4810;SDS011;2419;51.276;6.472;2022-08-03T06:06:09;1.50;;;1.40;;
4810;SDS011;2419;51.276;6.472;2022-08-03T06:08:38;3.53;;;2.20;;
4810;SDS011;2419;51.276;6.472;2022-08-03T06:11:06;2.63;;;1.60;;
4810;SDS011;2419;51.276;6.472;2022-08-03T06:13:36;2.90;;;1.90;;
4810;SDS011;2419;51.276;6.472;2022-08-03T06:16:05;1.70;;;1.60;;
4810;SDS011;2419;51.276;6.472;2022-08-03T06:18:34;2.27;;;2.07;;
4810;SDS011;2419;51.276;6.472;2022-08-03T06:21:02;4.63;;;2.17;;
4810;SDS011;2419;51.276;6.472;2022-08-03T06:23:42;2.60;;;2.27;;
4810;SDS011;2419;51.276;6.472;2022-08-03T06:26:19;2.40;;;1.70;;
4810;SDS011;2419;51.276;6.472;2022-08-03T06:28:48;3.13;;;1.70;;
4810;SDS011;2419;51.276;6.472;2022-08-03T06:31:20;2.30;;;1.70;;
4810;SDS011;2419;51.276;6.472;2022-08-03T06:33:49;2.03;;;1.87;;
4810;SDS011;2419;51.276;6.472;2022-08-03T06:36:37;2.17;;;1.73;;
4810;SDS011;2419;51.276;6.472;2022-08-03T06:39:06;2.80;;;2.50;;
4810;SDS011;2419;51.276;6.472;2022-08-03T06:41:34;2.13;;;1.93;;
4810;SDS011;2419;51.276;6.472;2022-08-03T06:44:12;1.83;;;1.60;;
4810;SDS011;2419;51.276;6.472;2022-08-03T06:46:40;2.20;;;2.00;;
4810;SDS011;2419;51.276;6.472;2022-08-03T06:49:08;2.60;;;1.80;;
4810;SDS011;2419;51.276;6.472;2022-08-03T06:51:36;2.10;;;1.40;;
4810;SDS011;2419;51.276;6.472;2022-08-03T06:54:25;2.03;;;1.43;;
4810;SDS011;2419;51.276;6.472;2022-08-03T06:56:53;2.37;;;1.50;;
4810;SDS011;2419;51.276;6.472;2022-08-03T06:59:22;1.40;;;1.30;;
4810;SDS011;2419;51.276;6.472;2022-08-03T07:02:12;1.70;;;1.50;;
4810;SDS011;2419;51.276;6.472;2022-08-03T07:04:45;1.43;;;1.33;;
4810;SDS011;2419;51.276;6.472;2022-08-03T07:07:13;2.63;;;1.53;;
4810;SDS011;2419;51.276;6.472;2022-08-03T07:09:42;1.30;;;1.20;;
4810;SDS011;2419;51.276;6.472;2022-08-03T07:12:23;1.40;;;1.30;;
4810;SDS011;2419;51.276;6.472;2022-08-03T07:14:54;2.07;;;1.40;;
4810;SDS011;2419;51.276;6.472;2022-08-03T07:17:28;1.93;;;1.27;;
4810;SDS011;2419;51.276;6.472;2022-08-03T07:19:57;1.33;;;1.23;;
4810;SDS011;2419;51.276;6.472;2022-08-03T07:22:25;1.70;;;1.60;;
4810;SDS011;2419;51.276;6.472;2022-08-03T07:24:55;3.63;;;1.50;;
4810;SDS011;2419;51.276;6.472;2022-08-03T07:27:25;1.10;;;1.00;;
4810;SDS011;2419;51.276;6.472;2022-08-03T07:29:56;1.73;;;1.30;;
4810;SDS011;2419;51.276;6.472;2022-08-03T07:32:25;1.43;;;1.27;;
4810;SDS011;2419;51.276;6.472;2022-08-03T07:34:56;1.60;;;1.50;;
4810;SDS011;2419;51.276;6.472;2022-08-03T07:37:27;1.53;;;1.40;;
4810;SDS011;2419;51.276;6.472;2022-08-03T07:39:56;1.37;;;1.03;;
4810;SDS011;2419;51.276;6.472;2022-08-03T07:42:24;1.73;;;1.20;;
4810;SDS011;2419;51.276;6.472;2022-08-03T07:44:53;1.20;;;1.10;;
4810;SDS011;2419;51.276;6.472;2022-08-03T07:47:23;1.60;;;1.43;;
4810;SDS011;2419;51.276;6.472;2022-08-03T07:50:01;1.20;;;1.10;;
4810;SDS011;2419;51.276;6.472;2022-08-03T07:52:29;1.20;;;1.10;;
4810;SDS011;2419;51.276;6.472;2022-08-03T07:55:17;3.93;;;1.23;;
4810;SDS011;2419;51.276;6.472;2022-08-03T07:57:46;1.10;;;1.00;;
4810;SDS011;2419;51.276;6.472;2022-08-03T08:00:25;1.73;;;1.20;;
4810;SDS011;2419;51.276;6.472;2022-08-03T08:02:55;1.30;;;1.20;;
4810;SDS011;2419;51.276;6.472;2022-08-03T08:05:23;0.80;;;0.80;;
4810;SDS011;2419;51.276;6.472;2022-08-03T08:07:51;1.60;;;1.10;;
4810;SDS011;2419;51.276;6.472;2022-08-03T08:10:19;1.10;;;1.00;;
4810;SDS011;2419;51.276;6.472;2022-08-03T08:12:48;1.10;;;1.00;;
4810;SDS011;2419;51.276;6.472;2022-08-03T08:15:16;1.47;;;1.27;;
4810;SDS011;2419;51.276;6.472;2022-08-03T08:17:45;1.63;;;1.10;;
4810;SDS011;2419;51.276;6.472;2022-08-03T08:20:17;1.20;;;1.10;;
4810;SDS011;2419;51.276;6.472;2022-08-03T08:22:54;0.93;;;0.90;;
4810;SDS011;2419;51.276;6.472;2022-08-03T08:25:27;1.47;;;1.20;;
4810;SDS011;2419;51.276;6.472;2022-08-03T08:27:55;1.70;;;1.10;;
4810;SDS011;2419;51.276;6.472;2022-08-03T08:30:47;1.30;;;1.20;;
4810;SDS011;2419;51.276;6.472;2022-08-03T08:33:15;2.10;;;1.13;;
4810;SDS011;2419;51.276;6.472;2022-08-03T08:35:51;1.87;;;1.00;;
4810;SDS011;2419;51.276;6.472;2022-08-03T08:38:20;1.37;;;1.27;;
4810;SDS011;2419;51.276;6.472;2022-08-03T08:40:49;1.40;;;1.20;;
4810;SDS011;2419;51.276;6.472;2022-08-03T08:43:17;2.03;;;1.17;;
4810;SDS011;2419;51.276;6.472;2022-08-03T08:45:46;3.43;;;1.00;;
4810;SDS011;2419;51.276;6.472;2022-08-03T08:48:17;1.13;;;1.03;;
4810;SDS011;2419;51.276;6.472;2022-08-03T08:50:52;0.90;;;0.90;;
4810;SDS011;2419;51.276;6.472;2022-08-03T08:53:22;1.17;;;0.97;;
4810;SDS011;2419;51.276;6.472;2022-08-03T08:55:54;1.47;;;1.20;;
4810;SDS011;2419;51.276;6.472;2022-08-03T08:58:27;1.10;;;1.00;;
4810;SDS011;2419;51.276;6.472;2022-08-03T09:00:58;2.50;;;0.97;;
4810;SDS011;2419;51.276;6.472;2022-08-03T09:03:26;1.13;;;1.03;;
4810;SDS011;2419;51.276;6.472;2022-08-03T09:05:59;1.60;;;1.10;;
4810;SDS011;2419;51.276;6.472;2022-08-03T09:08:28;1.10;;;1.00;;
4810;SDS011;2419;51.276;6.472;2022-08-03T09:10:56;2.10;;;1.10;;
4810;SDS011;2419;51.276;6.472;2022-08-03T09:13:25;1.00;;;0.90;;
4810;SDS011;2419;51.276;6.472;2022-08-03T09:18:45;1.13;;;1.03;;
4810;SDS011;2419;51.276;6.472;2022-08-03T09:21:18;1.43;;;1.10;;
4810;SDS011;2419;51.276;6.472;2022-08-03T09:24:03;2.03;;;0.93;;
4810;SDS011;2419;51.276;6.472;2022-08-03T09:26:48;1.53;;;1.10;;
4810;SDS011;2419;51.276;6.472;2022-08-03T09:29:19;1.63;;;1.00;;
4810;SDS011;2419;51.276;6.472;2022-08-03T09:31:48;0.90;;;0.90;;
4810;SDS011;2419;51.276;6.472;2022-08-03T09:34:27;3.57;;;1.40;;
4810;SDS011;2419;51.276;6.472;2022-08-03T09:36:57;0.90;;;0.90;;
4810;SDS011;2419;51.276;6.472;2022-08-03T09:39:26;2.20;;;1.00;;
4810;SDS011;2419;51.276;6.472;2022-08-03T09:42:07;1.40;;;0.90;;
4810;SDS011;2419;51.276;6.472;2022-08-03T09:44:40;1.20;;;1.10;;
4810;SDS011;2419;51.276;6.472;2022-08-03T09:47:11;0.80;;;0.80;;
4810;SDS011;2419;51.276;6.472;2022-08-03T09:49:40;0.73;;;0.73;;
4810;SDS011;2419;51.276;6.472;2022-08-03T09:52:28;1.40;;;1.00;;
4810;SDS011;2419;51.276;6.472;2022-08-03T09:55:15;0.90;;;0.90;;
4810;SDS011;2419;51.276;6.472;2022-08-03T09:58:05;1.50;;;1.20;;
4810;SDS011;2419;51.276;6.472;2022-08-03T10:00:50;1.00;;;1.00;;
4810;SDS011;2419;51.276;6.472;2022-08-03T10:03:20;1.07;;;1.00;;
4810;SDS011;2419;51.276;6.472;2022-08-03T10:05:48;1.10;;;0.90;;
4810;SDS011;2419;51.276;6.472;2022-08-03T10:08:24;2.10;;;1.10;;
4810;SDS011;2419;51.276;6.472;2022-08-03T10:10:52;1.23;;;1.00;;
4810;SDS011;2419;51.276;6.472;2022-08-03T10:13:21;1.20;;;1.10;;
4810;SDS011;2419;51.276;6.472;2022-08-03T10:15:49;1.25;;;1.15;;
4810;SDS011;2419;51.276;6.472;2022-08-03T10:18:37;0.93;;;0.90;;
4810;SDS011;2419;51.276;6.472;2022-08-03T10:21:06;1.20;;;1.10;;
4810;SDS011;2419;51.276;6.472;2022-08-03T10:23:38;0.83;;;0.83;;
4810;SDS011;2419;51.276;6.472;2022-08-03T10:26:10;1.10;;;1.00;;
4810;SDS011;2419;51.276;6.472;2022-08-03T10:29:19;1.10;;;1.00;;
4810;SDS011;2419;51.276;6.472;2022-08-03T10:31:50;1.37;;;1.20;;
4810;SDS011;2419;51.276;6.472;2022-08-03T10:34:25;1.40;;;1.30;;
4810;SDS011;2419;51.276;6.472;2022-08-03T10:36:56;1.10;;;1.00;;
4810;SDS011;2419;51.276;6.472;2022-08-03T10:39:30;1.30;;;1.20;;
4810;SDS011;2419;51.276;6.472;2022-08-03T10:41:58;1.20;;;1.10;;
4810;SDS011;2419;51.276;6.472;2022-08-03T10:44:29;1.20;;;1.10;;
4810;SDS011;2419;51.276;6.472;2022-08-03T10:47:03;1.17;;;1.08;;
4810;SDS011;2419;51.276;6.472;2022-08-03T10:49:32;1.87;;;1.10;;
4810;SDS011;2419;51.276;6.472;2022-08-03T10:52:01;1.10;;;1.00;;
4810;SDS011;2419;51.276;6.472;2022-08-03T10:54:52;1.10;;;1.00;;
4810;SDS011;2419;51.276;6.472;2022-08-03T10:57:45;1.00;;;0.90;;
4810;SDS011;2419;51.276;6.472;2022-08-03T11:00:16;1.10;;;1.00;;
4810;SDS011;2419;51.276;6.472;2022-08-03T11:03:03;2.03;;;1.10;;
4810;SDS011;2419;51.276;6.472;2022-08-03T11:05:36;1.20;;;1.00;;
4810;SDS011;2419;51.276;6.472;2022-08-03T11:08:18;2.33;;;1.27;;
4810;SDS011;2419;51.276;6.472;2022-08-03T11:10:56;0.80;;;0.80;;
4810;SDS011;2419;51.276;6.472;2022-08-03T11:13:27;2.50;;;1.00;;
4810;SDS011;2419;51.276;6.472;2022-08-03T11:16:00;1.60;;;1.50;;
4810;SDS011;2419;51.276;6.472;2022-08-03T11:18:33;1.20;;;1.10;;
4810;SDS011;2419;51.276;6.472;2022-08-03T11:21:02;1.20;;;1.10;;
4810;SDS011;2419;51.276;6.472;2022-08-03T11:23:40;1.40;;;1.30;;
4810;SDS011;2419;51.276;6.472;2022-08-03T11:26:33;1.20;;;1.10;;
4810;SDS011;2419;51.276;6.472;2022-08-03T11:31:54;2.58;;;1.10;;
4810;SDS011;2419;51.276;6.472;2022-08-03T11:34:22;1.70;;;1.00;;
4810;SDS011;2419;51.276;6.472;2022-08-03T11:39:56;1.20;;;1.10;;
4810;SDS011;2419;51.276;6.472;2022-08-03T11:42:38;1.58;;;1.48;;
4810;SDS011;2419;51.276;6.472;2022-08-03T11:45:11;1.00;;;1.00;;
4810;SDS011;2419;51.276;6.472;2022-08-03T11:47:40;1.20;;;1.10;;
4810;SDS011;2419;51.276;6.472;2022-08-03T11:50:16;1.40;;;1.30;;
4810;SDS011;2419;51.276;6.472;2022-08-03T11:52:47;1.87;;;1.10;;
4810;SDS011;2419;51.276;6.472;2022-08-03T11:55:16;1.35;;;1.10;;
4810;SDS011;2419;51.276;6.472;2022-08-03T11:57:48;1.37;;;1.17;;
4810;SDS011;2419;51.276;6.472;2022-08-03T12:00:36;1.00;;;1.00;;
4810;SDS011;2419;51.276;6.472;2022-08-03T12:03:07;1.13;;;0.80;;
4810;SDS011;2419;51.276;6.472;2022-08-03T12:05:38;1.20;;;1.07;;
4810;SDS011;2419;51.276;6.472;2022-08-03T12:08:18;2.13;;;1.70;;
4810;SDS011;2419;51.276;6.472;2022-08-03T12:10:56;1.23;;;1.00;;
4810;SDS011;2419;51.276;6.472;2022-08-03T12:13:27;0.90;;;0.90;;
4810;SDS011;2419;51.276;6.472;2022-08-03T12:16:23;1.10;;;1.00;;
4810;SDS011;2419;51.276;6.472;2022-08-03T12:18:54;0.90;;;0.90;;
4810;SDS011;2419;51.276;6.472;2022-08-03T12:21:23;1.20;;;0.97;;
4810;SDS011;2419;51.276;6.472;2022-08-03T12:23:55;1.00;;;0.90;;
4810;SDS011;2419;51.276;6.472;2022-08-03T12:26:25;1.00;;;0.90;;
4810;SDS011;2419;51.276;6.472;2022-08-03T12:28:57;3.50;;;1.00;;
4810;SDS011;2419;51.276;6.472;2022-08-03T12:31:25;1.07;;;1.00;;
4810;SDS011;2419;51.276;6.472;2022-08-03T12:33:54;1.03;;;0.93;;
4810;SDS011;2419;51.276;6.472;2022-08-03T12:36:28;1.10;;;1.00;;
4810;SDS011;2419;51.276;6.472;2022-08-03T12:38:58;1.00;;;1.00;;
4810;SDS011;2419;51.276;6.472;2022-08-03T12:41:30;1.07;;;0.97;;
4810;SDS011;2419;51.276;6.472;2022-08-03T12:44:03;1.07;;;1.00;;
4810;SDS011;2419;51.276;6.472;2022-08-03T12:46:32;1.20;;;1.10;;
4810;SDS011;2419;51.276;6.472;2022-08-03T12:49:03;1.33;;;1.00;;
4810;SDS011;2419;51.276;6.472;2022-08-03T12:51:34;1.07;;;0.97;;
4810;SDS011;2419;51.276;6.472;2022-08-03T12:54:04;1.00;;;0.90;;
4810;SDS011;2419;51.276;6.472;2022-08-03T12:59:27;2.60;;;0.90;;
4810;SDS011;2419;51.276;6.472;2022-08-03T13:02:03;1.00;;;0.90;;
4810;SDS011;2419;51.276;6.472;2022-08-03T13:04:36;1.27;;;1.17;;
4810;SDS011;2419;51.276;6.472;2022-08-03T13:07:20;1.43;;;0.80;;
4810;SDS011;2419;51.276;6.472;2022-08-03T13:09:49;0.83;;;0.83;;
4810;SDS011;2419;51.276;6.472;2022-08-03T13:12:19;0.80;;;0.80;;
4810;SDS011;2419;51.276;6.472;2022-08-03T13:14:51;0.87;;;0.73;;
4810;SDS011;2419;51.276;6.472;2022-08-03T13:17:24;1.03;;;0.90;;
4810;SDS011;2419;51.276;6.472;2022-08-03T13:20:10;0.83;;;0.83;;
4810;SDS011;2419;51.276;6.472;2022-08-03T13:22:58;1.10;;;1.00;;
4810;SDS011;2419;51.276;6.472;2022-08-03T13:25:48;1.10;;;1.00;;
4810;SDS011;2419;51.276;6.472;2022-08-03T13:28:21;0.70;;;0.70;;
4810;SDS011;2419;51.276;6.472;2022-08-03T13:30:53;2.20;;;0.87;;
4810;SDS011;2419;51.276;6.472;2022-08-03T13:33:25;0.90;;;0.80;;
4810;SDS011;2419;51.276;6.472;2022-08-03T13:35:54;1.10;;;1.00;;
4810;SDS011;2419;51.276;6.472;2022-08-03T13:38:22;0.80;;;0.80;;
4810;SDS011;2419;51.276;6.472;2022-08-03T13:40:52;0.80;;;0.73;;
4810;SDS011;2419;51.276;6.472;2022-08-03T13:43:21;6.83;;;1.53;;
4810;SDS011;2419;51.276;6.472;2022-08-03T13:45:50;0.90;;;0.90;;
4810;SDS011;2419;51.276;6.472;2022-08-03T13:48:23;0.90;;;0.90;;
4810;SDS011;2419;51.276;6.472;2022-08-03T13:51:03;0.90;;;0.90;;
4810;SDS011;2419;51.276;6.472;2022-08-03T13:53:48;1.47;;;1.00;;
4810;SDS011;2419;51.276;6.472;2022-08-03T13:56:24;1.13;;;1.00;;
4810;SDS011;2419;51.276;6.472;2022-08-03T13:58:56;0.83;;;0.83;;
4810;SDS011;2419;51.276;6.472;2022-08-03T14:01:28;1.00;;;0.93;;
4810;SDS011;2419;51.276;6.472;2022-08-03T14:04:16;1.00;;;0.90;;
4810;SDS011;2419;51.276;6.472;2022-08-03T14:06:47;1.10;;;1.00;;
4810;SDS011;2419;51.276;6.472;2022-08-03T14:09:16;1.13;;;1.03;;
4810;SDS011;2419;51.276;6.472;2022-08-03T14:11:44;1.00;;;0.80;;
4810;SDS011;2419;51.276;6.472;2022-08-03T14:14:33;0.80;;;0.80;;
4810;SDS011;2419;51.276;6.472;2022-08-03T14:17:03;0.90;;;0.70;;
4810;SDS011;2419;51.276;6.472;2022-08-03T14:19:33;0.90;;;0.90;;
4810;SDS011;2419;51.276;6.472;2022-08-03T14:22:19;1.00;;;0.90;;
4810;SDS011;2419;51.276;6.472;2022-08-03T14:24:47;0.80;;;0.80;;
4810;SDS011;2419;51.276;6.472;2022-08-03T14:27:16;0.90;;;0.90;;
4810;SDS011;2419;51.276;6.472;2022-08-03T14:29:45;0.80;;;0.80;;
4810;SDS011;2419;51.276;6.472;2022-08-03T14:32:15;0.80;;;0.80;;
4810;SDS011;2419;51.276;6.472;2022-08-03T14:34:43;0.80;;;0.80;;
4810;SDS011;2419;51.276;6.472;2022-08-03T14:37:11;1.47;;;1.13;;
4810;SDS011;2419;51.276;6.472;2022-08-03T14:39:39;1.47;;;1.07;;
4810;SDS011;2419;51.276;6.472;2022-08-03T14:42:26;1.07;;;0.97;;
4810;SDS011;2419;51.276;6.472;2022-08-03T14:44:54;1.30;;;0.80;;
4810;SDS011;2419;51.276;6.472;2022-08-03T14:47:31;0.83;;;0.83;;
4810;SDS011;2419;51.276;6.472;2022-08-03T14:50:19;0.90;;;0.90;;
4810;SDS011;2419;51.276;6.472;2022-08-03T14:53:06;1.57;;;1.00;;
4810;SDS011;2419;51.276;6.472;2022-08-03T14:55:34;1.07;;;0.90;;
4810;SDS011;2419;51.276;6.472;2022-08-03T14:58:04;0.90;;;0.90;;
4810;SDS011;2419;51.276;6.472;2022-08-03T15:00:45;1.10;;;1.00;;
4810;SDS011;2419;51.276;6.472;2022-08-03T15:03:15;1.00;;;0.90;;
4810;SDS011;2419;51.276;6.472;2022-08-03T15:05:45;1.00;;;1.00;;
4810;SDS011;2419;51.276;6.472;2022-08-03T15:08:14;1.40;;;1.00;;
4810;SDS011;2419;51.276;6.472;2022-08-03T15:10:42;0.90;;;0.90;;
4810;SDS011;2419;51.276;6.472;2022-08-03T15:13:12;0.90;;;0.90;;
4810;SDS011;2419;51.276;6.472;2022-08-03T15:15:40;0.90;;;0.80;;
4810;SDS011;2419;51.276;6.472;2022-08-03T15:18:08;1.00;;;1.00;;
4810;SDS011;2419;51.276;6.472;2022-08-03T15:20:37;0.80;;;0.80;;
4810;SDS011;2419;51.276;6.472;2022-08-03T15:23:12;0.80;;;0.80;;
4810;SDS011;2419;51.276;6.472;2022-08-03T15:25:41;0.97;;;0.97;;
4810;SDS011;2419;51.276;6.472;2022-08-03T15:28:29;1.17;;;1.00;;
4810;SDS011;2419;51.276;6.472;2022-08-03T15:30:58;1.03;;;0.93;;
4810;SDS011;2419;51.276;6.472;2022-08-03T15:33:26;0.80;;;0.80;;
4810;SDS011;2419;51.276;6.472;2022-08-03T15:35:56;1.00;;;0.90;;
4810;SDS011;2419;51.276;6.472;2022-08-03T15:38:25;1.00;;;0.90;;
4810;SDS011;2419;51.276;6.472;2022-08-03T15:40:53;1.00;;;0.90;;
4810;SDS011;2419;51.276;6.472;2022-08-03T15:43:23;0.80;;;0.80;;
4810;SDS011;2419;51.276;6.472;2022-08-03T15:45:56;0.97;;;0.90;;
4810;SDS011;2419;51.276;6.472;2022-08-03T15:48:45;1.00;;;1.00;;
4810;SDS011;2419;51.276;6.472;2022-08-03T15:51:15;1.53;;;0.70;;
4810;SDS011;2419;51.276;6.472;2022-08-03T15:53:43;0.90;;;0.90;;
4810;SDS011;2419;51.276;6.472;2022-08-03T15:56:12;1.20;;;1.10;;
4810;SDS011;2419;51.276;6.472;2022-08-03T15:58:44;1.13;;;1.03;;
4810;SDS011;2419;51.276;6.472;2022-08-03T16:01:33;1.20;;;1.10;;
4810;SDS011;2419;51.276;6.472;2022-08-03T16:04:01;1.30;;;1.20;;